createdAt,value
2019-04-04T00:02:45.544Z,77.80
2019-04-04T00:06:48.564Z,77.60
2019-04-04T00:10:51.586Z,79.30
2019-04-04T00:14:55.616Z,76.80
2019-04-04T00:18:59.175Z,77.30
2019-04-04T00:23:02.267Z,78.20
2019-04-04T00:27:05.381Z,78.10
2019-04-04T00:31:08.388Z,79.10
2019-04-04T00:35:11.424Z,78.10
2019-04-04T00:39:14.427Z,78.40
2019-04-04T00:43:20.730Z,79.00
2019-04-04T00:47:22.386Z,80.10
2019-04-04T00:51:25.392Z,79.30
2019-04-04T00:55:28.428Z,79.70
2019-04-04T00:59:31.440Z,78.90
2019-04-04T01:03:34.469Z,79.00
2019-04-04T01:07:37.536Z,80.60
2019-04-04T01:11:40.529Z,79.60
2019-04-04T01:15:45.502Z,79.70
2019-04-04T01:19:49.030Z,79.40
2019-04-04T01:23:53.063Z,79.40
2019-04-04T01:27:56.074Z,79.30
2019-04-04T01:31:59.106Z,79.30
2019-04-04T01:36:02.329Z,78.20
2019-04-04T01:40:06.025Z,78.50
2019-04-04T01:44:11.176Z,78.00
2019-04-04T01:48:13.947Z,78.70
2019-04-04T01:52:16.954Z,78.40
2019-04-04T01:56:20.020Z,77.60
2019-04-04T02:00:23.027Z,77.80
2019-04-04T02:04:26.027Z,78.30
2019-04-04T02:08:31.395Z,77.60
2019-04-04T02:12:33.946Z,77.50
2019-04-04T02:16:38.184Z,77.90
2019-04-04T02:20:41.184Z,78.80
2019-04-04T02:24:44.195Z,77.60
2019-04-04T02:28:47.287Z,77.50
2019-04-04T02:32:50.322Z,77.90
2019-04-04T02:36:53.356Z,77.80
2019-04-04T02:40:56.618Z,77.40
2019-04-04T02:44:59.609Z,77.10
2019-04-04T02:49:02.728Z,77.90
2019-04-04T02:53:05.755Z,78.00
2019-04-04T02:57:09.585Z,77.40
2019-04-04T03:01:12.802Z,78.00
2019-04-04T03:05:18.808Z,77.40
2019-04-04T03:09:20.740Z,78.20
2019-04-04T03:13:23.835Z,79.20
2019-04-04T03:17:31.481Z,78.80
2019-04-04T03:21:32.817Z,78.60
2019-04-04T03:25:35.828Z,77.10
2019-04-04T03:29:38.856Z,78.80
2019-04-04T03:33:41.861Z,78.50
2019-04-04T03:37:46.340Z,78.00
2019-04-04T03:41:49.526Z,78.10
2019-04-04T03:45:52.551Z,78.80
2019-04-04T03:49:57.510Z,78.30
2019-04-04T03:54:02.388Z,78.60
2019-04-04T03:58:05.393Z,77.70
2019-04-04T04:02:08.401Z,78.00
2019-04-04T04:06:11.409Z,77.60
2019-04-04T04:10:14.408Z,78.30
2019-04-04T04:14:15.488Z,77.20
2019-04-04T04:18:21.261Z,77.60
2019-04-04T04:22:24.434Z,78.30
2019-04-04T04:26:27.535Z,77.80
2019-04-04T04:30:30.750Z,77.60
2019-04-04T04:34:34.354Z,77.60
2019-04-04T04:38:37.397Z,77.90
2019-04-04T04:42:40.480Z,77.70
2019-04-04T04:46:43.524Z,78.60
2019-04-04T04:50:46.538Z,78.20
2019-04-04T04:54:49.688Z,77.30
2019-04-04T04:58:55.406Z,76.70
2019-04-04T05:02:57.860Z,76.60
2019-04-04T05:07:00.876Z,77.10
2019-04-04T05:11:03.976Z,77.50
2019-04-04T05:15:07.099Z,77.10
2019-04-04T05:19:11.359Z,76.90
2019-04-04T05:23:15.518Z,76.70
2019-04-04T05:27:19.359Z,76.50
2019-04-04T05:31:22.371Z,76.20
2019-04-04T05:35:25.408Z,76.30
2019-04-04T05:39:28.407Z,76.80
2019-04-04T05:43:31.425Z,76.80
2019-04-04T05:47:34.457Z,77.80
2019-04-04T05:51:37.447Z,76.60
2019-04-04T05:55:41.837Z,77.50
2019-04-04T05:59:45.377Z,77.50
2019-04-04T06:03:48.383Z,77.70
2019-04-04T06:07:51.400Z,77.50
2019-04-04T06:11:54.412Z,76.80
2019-04-04T06:15:57.577Z,77.20
2019-04-04T06:20:01.519Z,76.60
2019-04-04T06:24:04.747Z,77.10
2019-04-04T06:28:07.993Z,76.40
2019-04-04T06:32:11.176Z,77.00
2019-04-04T06:36:14.241Z,76.20
2019-04-04T06:40:17.639Z,76.00
2019-04-04T06:44:20.725Z,75.80
2019-04-04T06:48:24.609Z,76.40
2019-04-04T06:52:27.646Z,76.10
2019-04-04T06:56:32.017Z,76.50
2019-04-04T07:00:35.579Z,76.00
2019-04-04T07:04:38.588Z,75.80
2019-04-04T07:08:41.612Z,76.70
2019-04-04T07:12:44.664Z,76.20
2019-04-04T07:16:47.783Z,76.60
2019-04-04T07:20:52.149Z,76.70
2019-04-04T07:24:55.170Z,76.50
2019-04-04T07:28:58.185Z,76.20
2019-04-04T07:33:01.294Z,76.90
2019-04-04T07:37:04.407Z,76.50
2019-04-04T07:41:08.427Z,76.70
2019-04-04T07:45:14.338Z,76.80
2019-04-04T07:49:17.842Z,77.00
2019-04-04T07:53:20.884Z,76.80
2019-04-04T07:57:23.889Z,76.60
2019-04-04T08:01:27.249Z,77.20
2019-04-04T08:05:30.240Z,76.30
2019-04-04T08:09:33.258Z,76.90
2019-04-04T08:13:36.291Z,76.80
2019-04-04T08:17:39.352Z,77.30
2019-04-04T08:21:43.584Z,76.80
2019-04-04T08:25:46.659Z,77.00
2019-04-04T08:29:49.653Z,76.60
2019-04-04T08:33:52.652Z,76.90
2019-04-04T08:37:55.733Z,77.00
2019-04-04T08:41:58.832Z,76.70
2019-04-04T08:46:01.834Z,76.80
2019-04-04T08:50:05.037Z,76.90
2019-04-04T08:54:08.052Z,76.90
2019-04-04T08:58:11.172Z,77.30
2019-04-04T09:02:14.266Z,76.60
2019-04-04T09:06:17.417Z,76.50
2019-04-04T09:10:20.439Z,76.30
2019-04-04T09:14:23.508Z,76.10
2019-04-04T09:18:26.744Z,76.40
2019-04-04T09:22:30.408Z,76.00
2019-04-04T09:26:33.433Z,73.60
2019-04-04T09:30:36.548Z,73.80
2019-04-04T09:34:39.570Z,74.00
2019-04-04T09:38:42.578Z,73.70
2019-04-04T09:42:45.604Z,73.30
2019-04-04T09:46:48.609Z,75.50
2019-04-04T09:50:51.626Z,73.40
2019-04-04T09:54:54.837Z,73.60
2019-04-04T09:58:57.896Z,73.30
2019-04-04T10:03:00.991Z,72.70
2019-04-04T10:07:04.030Z,71.60
2019-04-04T10:11:07.258Z,71.00
2019-04-04T10:15:10.755Z,70.80
2019-04-04T10:19:13.774Z,70.60
2019-04-04T10:23:18.094Z,70.40
2019-04-04T10:27:21.109Z,71.00
2019-04-04T10:31:24.136Z,70.70
2019-04-04T10:35:27.133Z,71.20
2019-04-04T10:39:32.704Z,71.30
2019-04-04T10:43:35.063Z,70.40
2019-04-04T10:47:38.073Z,70.80
2019-04-04T10:51:41.140Z,70.90
2019-04-04T10:55:44.252Z,71.40
2019-04-04T10:59:47.287Z,70.90
2019-04-04T11:03:50.295Z,70.50
2019-04-04T11:07:53.312Z,70.60
2019-04-04T11:11:56.326Z,70.50
2019-04-04T11:15:59.467Z,70.60
2019-04-04T11:20:04.681Z,70.70
2019-04-04T11:24:08.711Z,71.80
2019-04-04T11:28:11.812Z,71.40
2019-04-04T11:32:14.816Z,72.10
2019-04-04T11:36:17.851Z,70.90
2019-04-04T11:40:20.956Z,71.90
2019-04-04T11:44:24.051Z,70.90
2019-04-04T11:48:27.154Z,72.20
2019-04-04T11:52:30.159Z,73.10
2019-04-04T11:56:33.180Z,72.00
2019-04-04T12:00:38.134Z,71.70
2019-04-04T12:04:42.236Z,71.10
2019-04-04T12:08:46.132Z,70.70
2019-04-04T12:12:49.701Z,72.60
2019-04-04T12:16:52.889Z,72.50
2019-04-04T12:20:55.984Z,73.20
2019-04-04T12:24:59.888Z,74.20
2019-04-04T12:29:03.100Z,74.30
2019-04-04T12:33:06.129Z,73.90
2019-04-04T12:37:09.151Z,74.40
2019-04-04T12:41:12.172Z,73.40
2019-04-04T12:45:15.379Z,74.00
2019-04-04T12:49:18.377Z,73.90
2019-04-04T12:53:21.471Z,74.30
2019-04-04T12:57:24.483Z,74.00
2019-04-04T13:01:28.878Z,74.60
2019-04-04T13:05:33.111Z,73.20
2019-04-04T13:09:39.153Z,72.30
2019-04-04T13:13:42.195Z,73.20
2019-04-04T13:17:45.290Z,72.90
2019-04-04T13:21:48.805Z,72.30
2019-04-04T13:25:53.458Z,71.80
2019-04-04T13:29:56.468Z,71.60
2019-04-04T13:33:59.484Z,72.50
2019-04-04T13:38:02.479Z,72.00
2019-04-04T13:42:07.379Z,71.90
2019-04-04T13:46:11.182Z,72.20
2019-04-04T13:50:19.769Z,72.90
2019-04-04T13:54:20.359Z,72.60
2019-04-04T13:58:23.371Z,72.50
2019-04-04T14:02:26.694Z,73.70
2019-04-04T14:06:29.865Z,73.40
2019-04-04T14:10:32.976Z,73.40
2019-04-04T14:14:36.476Z,72.30
2019-04-04T14:18:42.370Z,72.20
2019-04-04T14:22:45.110Z,72.90
2019-04-04T14:26:48.772Z,72.50
2019-04-04T14:30:51.900Z,72.10
2019-04-04T14:34:54.957Z,71.80
2019-04-04T14:38:58.057Z,71.70
2019-04-04T14:43:07.300Z,71.20
2019-04-04T14:47:10.302Z,70.70
2019-04-04T14:51:14.409Z,70.50
2019-04-04T14:55:17.949Z,69.50
2019-04-04T14:59:22.569Z,69.30
2019-04-04T15:03:25.622Z,67.90
2019-04-04T15:07:28.657Z,68.10
2019-04-04T15:11:31.713Z,68.00
2019-04-04T15:15:34.737Z,68.30
2019-04-04T15:19:37.880Z,69.10
2019-04-04T15:23:40.951Z,68.50
2019-04-04T15:27:44.703Z,68.40
2019-04-04T15:31:47.721Z,68.50
2019-04-04T15:35:50.752Z,68.20
2019-04-04T15:39:53.732Z,68.60
2019-04-04T15:43:56.990Z,69.00
2019-04-04T15:48:00.061Z,68.90
2019-04-04T15:52:03.807Z,69.10
2019-04-04T15:56:07.093Z,69.40
2019-04-04T16:00:10.417Z,69.60
2019-04-04T16:04:13.704Z,69.80
2019-04-04T16:08:16.944Z,70.90
2019-04-04T16:12:20.219Z,70.10
2019-04-04T16:16:23.655Z,71.40
2019-04-04T16:20:27.102Z,72.00
2019-04-04T16:24:30.337Z,72.00
2019-04-04T16:28:34.532Z,72.80
2019-04-04T16:32:37.544Z,73.10
2019-04-04T16:36:40.584Z,73.40
2019-04-04T16:40:43.779Z,73.30
2019-04-04T16:44:46.976Z,72.20
2019-04-04T16:48:50.065Z,72.00
2019-04-04T16:52:53.185Z,71.90
2019-04-04T16:56:56.495Z,71.80
2019-04-04T17:00:59.749Z,71.70
2019-04-04T17:05:04.229Z,73.10
2019-04-04T17:09:07.693Z,72.20
2019-04-04T17:13:10.729Z,73.70
2019-04-04T17:17:13.904Z,72.80
2019-04-04T17:21:17.143Z,73.20
2019-04-04T17:25:22.394Z,73.20
2019-04-04T17:29:28.292Z,74.50
2019-04-04T17:33:31.336Z,74.30
2019-04-04T17:37:35.075Z,73.90
2019-04-04T17:41:38.254Z,74.10
2019-04-04T17:45:41.627Z,74.00
2019-04-04T17:49:46.615Z,74.00
2019-04-04T17:53:52.380Z,73.60
2019-04-04T17:57:54.948Z,73.70
2019-04-04T18:01:57.956Z,73.70
2019-04-04T18:06:01.143Z,78.40
2019-04-04T18:10:05.396Z,73.30
2019-04-04T18:14:08.410Z,73.70
2019-04-04T18:18:11.490Z,73.60
2019-04-04T18:22:14.601Z,73.70
2019-04-04T18:26:17.769Z,73.70
2019-04-04T18:30:22.002Z,73.40
2019-04-04T18:34:25.011Z,73.50
2019-04-04T18:38:29.947Z,73.20
2019-04-04T18:42:33.158Z,73.10
2019-04-04T18:46:36.250Z,73.50
2019-04-04T18:50:39.549Z,73.30
2019-04-04T18:54:42.682Z,73.90
2019-04-04T18:58:45.769Z,73.50
2019-04-04T19:02:48.770Z,73.90
2019-04-04T19:06:51.810Z,74.30
2019-04-04T19:10:54.830Z,73.90
2019-04-04T19:14:57.845Z,74.30
2019-04-04T19:19:00.860Z,75.00
2019-04-04T19:23:03.948Z,75.10
2019-04-04T19:27:07.124Z,74.40
2019-04-04T19:31:10.959Z,74.50
2019-04-04T19:35:14.846Z,74.30
2019-04-04T19:39:17.952Z,73.80
2019-04-04T19:43:20.963Z,73.90
2019-04-04T19:47:25.459Z,74.90
2019-04-04T19:51:30.543Z,75.50
2019-04-04T19:55:33.747Z,75.50
2019-04-04T19:59:37.462Z,75.10
2019-04-04T20:03:40.603Z,75.20
2019-04-04T20:07:43.631Z,75.70
2019-04-04T20:11:46.648Z,75.50
2019-04-04T20:15:49.790Z,75.40
2019-04-04T20:19:52.792Z,75.10
2019-04-04T20:23:56.104Z,75.50
2019-04-04T20:27:59.147Z,76.10
2019-04-04T20:32:04.121Z,76.10
2019-04-04T20:36:07.130Z,76.20
2019-04-04T20:40:10.292Z,76.10
2019-04-04T20:44:13.384Z,76.00
2019-04-04T20:48:16.448Z,76.40
2019-04-04T20:52:19.557Z,76.30
2019-04-04T20:56:22.572Z,75.80
2019-04-04T21:00:25.598Z,76.30
2019-04-04T21:04:28.635Z,76.40
2019-04-04T21:08:31.653Z,76.50
2019-04-04T21:12:34.779Z,76.80
2019-04-04T21:16:37.791Z,76.80
2019-04-04T21:20:40.882Z,76.90
2019-04-04T21:24:44.058Z,76.20
2019-04-04T21:28:48.241Z,76.50
2019-04-04T21:32:52.856Z,76.90
2019-04-04T21:36:55.877Z,76.10
2019-04-04T21:40:58.925Z,76.50
2019-04-04T21:45:04.723Z,77.30
2019-04-04T21:49:07.745Z,77.80
2019-04-04T21:53:10.824Z,77.80
2019-04-04T21:57:13.884Z,77.60
2019-04-04T22:01:17.006Z,77.50
2019-04-04T22:05:20.036Z,77.70
2019-04-04T22:09:23.063Z,77.30
2019-04-04T22:13:26.148Z,78.50
2019-04-04T22:17:29.149Z,77.80
2019-04-04T22:21:32.159Z,77.50
2019-04-04T22:25:35.177Z,77.30
2019-04-04T22:29:38.221Z,77.50
2019-04-04T22:33:42.184Z,77.00
2019-04-04T22:37:45.203Z,78.10
2019-04-04T22:41:48.229Z,78.10
2019-04-04T22:45:51.242Z,79.00
2019-04-04T22:49:54.270Z,78.70
2019-04-04T22:53:57.312Z,78.90
2019-04-04T22:58:00.316Z,78.20
2019-04-04T23:02:03.353Z,78.70
2019-04-04T23:06:06.384Z,78.80
2019-04-04T23:10:09.652Z,78.90
2019-04-04T23:14:12.688Z,78.70
2019-04-04T23:18:15.998Z,78.10
2019-04-04T23:22:19.021Z,78.30
2019-04-04T23:26:22.040Z,77.80
2019-04-04T23:30:25.279Z,78.00
2019-04-04T23:34:29.311Z,77.80
2019-04-04T23:38:32.341Z,78.50
2019-04-04T23:42:35.355Z,78.40
2019-04-04T23:46:38.380Z,79.00
2019-04-04T23:50:41.423Z,79.40
2019-04-04T23:54:44.424Z,78.70
2019-04-04T23:58:47.457Z,78.10
